createdAt,value
2019-02-14T00:04:16.289Z,13.60
2019-02-14T00:09:09.165Z,12.70
2019-02-14T00:14:02.052Z,16.67
2019-02-14T00:18:54.962Z,16.40
2019-02-14T00:23:47.812Z,12.53
2019-02-14T00:28:40.679Z,12.20
2019-02-14T00:33:33.601Z,13.73
2019-02-14T00:38:26.542Z,12.47
2019-02-14T00:43:19.442Z,13.00
2019-02-14T00:48:12.383Z,12.90
2019-02-14T00:53:05.225Z,14.17
2019-02-14T00:57:58.121Z,13.00
2019-02-14T01:02:51.013Z,12.37
2019-02-14T01:07:43.876Z,14.43
2019-02-14T01:12:36.748Z,15.03
2019-02-14T01:17:29.624Z,11.97
2019-02-14T01:22:22.505Z,12.50
2019-02-14T01:27:15.480Z,13.33
2019-02-14T01:32:08.348Z,13.87
2019-02-14T01:37:01.186Z,15.47
2019-02-14T01:41:57.127Z,13.10
2019-02-14T01:46:49.999Z,11.20
2019-02-14T01:51:42.858Z,12.60
2019-02-14T01:56:35.739Z,11.90
2019-02-14T02:01:28.762Z,11.10
2019-02-14T02:06:21.681Z,11.97
2019-02-14T02:11:14.664Z,11.97
2019-02-14T02:16:07.517Z,12.33
2019-02-14T02:21:00.387Z,10.87
2019-02-14T02:25:53.299Z,14.20
2019-02-14T02:30:46.276Z,13.53
2019-02-14T02:35:39.162Z,13.23
2019-02-14T02:40:34.170Z,13.90
2019-02-14T02:45:27.074Z,16.50
2019-02-14T02:50:19.963Z,13.87
2019-02-14T02:55:12.852Z,14.30
2019-02-14T03:00:11.813Z,13.07
2019-02-14T03:05:06.294Z,13.27
2019-02-14T03:09:59.154Z,11.93
2019-02-14T03:14:52.040Z,11.53
2019-02-14T03:19:44.871Z,11.23
2019-02-14T03:24:37.741Z,11.13
2019-02-14T03:29:30.621Z,11.00
2019-02-14T03:34:23.613Z,12.90
2019-02-14T03:39:16.488Z,12.83
2019-02-14T03:44:09.345Z,12.73
2019-02-14T03:49:02.229Z,11.43
2019-02-14T03:53:55.086Z,13.67
2019-02-14T03:58:47.966Z,13.30
2019-02-14T04:03:40.812Z,14.20
2019-02-14T04:08:33.781Z,12.87
2019-02-14T04:13:26.615Z,13.70
2019-02-14T04:18:20.997Z,13.90
2019-02-14T04:23:13.889Z,16.20
2019-02-14T04:28:06.758Z,13.87
2019-02-14T04:32:59.599Z,12.97
2019-02-14T04:37:52.475Z,13.53
2019-02-14T04:42:45.325Z,17.80
2019-02-14T04:47:38.210Z,15.60
2019-02-14T04:52:31.083Z,16.43
2019-02-14T04:57:24.156Z,13.77
2019-02-14T05:02:17.018Z,12.23
2019-02-14T05:07:09.975Z,11.47
2019-02-14T05:12:02.855Z,12.47
2019-02-14T05:16:55.704Z,14.03
2019-02-14T05:21:48.565Z,12.83
2019-02-14T05:26:41.432Z,14.67
2019-02-14T05:31:34.331Z,12.13
2019-02-14T05:36:27.170Z,13.17
2019-02-14T05:41:20.047Z,11.63
2019-02-14T05:46:12.909Z,15.27
2019-02-14T05:51:05.794Z,14.90
2019-02-14T05:55:58.677Z,14.27
2019-02-14T06:00:51.539Z,12.37
2019-02-14T06:05:44.403Z,12.17
2019-02-14T06:10:37.315Z,11.10
2019-02-14T06:15:30.170Z,14.23
2019-02-14T06:20:23.030Z,12.13
2019-02-14T06:25:15.896Z,11.00
2019-02-14T06:30:11.350Z,14.40
2019-02-14T06:35:05.223Z,12.20
2019-02-14T06:39:59.889Z,12.57
2019-02-14T06:44:52.746Z,14.43
2019-02-14T06:49:45.659Z,13.23
2019-02-14T06:54:38.522Z,11.27
2019-02-14T06:59:31.381Z,11.00
2019-02-14T07:04:24.241Z,10.90
2019-02-14T07:09:17.221Z,14.60
2019-02-14T07:14:10.067Z,15.27
2019-02-14T07:19:02.912Z,13.37
2019-02-14T07:23:55.766Z,13.23
2019-02-14T07:28:48.716Z,15.27
2019-02-14T07:33:41.603Z,12.00
2019-02-14T07:38:34.453Z,12.57
2019-02-14T07:43:27.361Z,15.23
2019-02-14T07:48:20.186Z,12.27
2019-02-14T07:53:13.071Z,13.63
2019-02-14T07:58:05.931Z,12.17
2019-02-14T08:02:58.806Z,10.30
2019-02-14T08:07:54.631Z,11.70
2019-02-14T08:12:47.495Z,11.30
2019-02-14T08:17:40.377Z,14.60
2019-02-14T08:22:33.259Z,10.80
2019-02-14T08:27:26.171Z,13.40
2019-02-14T08:32:19.043Z,13.53
2019-02-14T08:37:11.911Z,10.77
2019-02-14T08:42:04.836Z,11.13
2019-02-14T08:46:57.746Z,12.07
2019-02-14T08:51:50.609Z,12.73
2019-02-14T08:56:43.465Z,13.00
2019-02-14T09:01:36.349Z,10.20
2019-02-14T09:06:29.231Z,10.77
2019-02-14T09:11:22.071Z,11.87
2019-02-14T09:16:14.947Z,10.87
2019-02-14T09:21:08.894Z,10.63
2019-02-14T09:26:02.437Z,12.23
2019-02-14T09:30:55.543Z,10.13
2019-02-14T09:35:48.421Z,10.07
2019-02-14T09:40:41.302Z,13.30
2019-02-14T09:45:34.181Z,11.63
2019-02-14T09:50:27.124Z,8.53
2019-02-14T09:55:19.971Z,10.50
2019-02-14T10:00:14.877Z,12.80
2019-02-14T10:05:08.969Z,9.53
2019-02-14T10:10:01.946Z,13.77
2019-02-14T10:14:54.804Z,8.40
2019-02-14T10:19:47.801Z,12.33
2019-02-14T10:24:40.661Z,10.43
2019-02-14T10:29:33.548Z,9.23
2019-02-14T10:34:26.417Z,10.53
2019-02-14T10:39:19.315Z,10.57
2019-02-14T10:44:12.267Z,9.73
2019-02-14T10:49:05.162Z,9.30
2019-02-14T10:53:58.294Z,9.27
2019-02-14T10:58:51.194Z,9.63
2019-02-14T11:03:44.159Z,9.70
2019-02-14T11:08:37.838Z,9.50
2019-02-14T11:13:30.963Z,9.93
2019-02-14T11:18:23.858Z,9.73
2019-02-14T11:23:16.755Z,10.57
2019-02-14T11:28:09.608Z,10.17
2019-02-14T11:33:02.498Z,9.07
2019-02-14T11:37:55.348Z,9.80
2019-02-14T11:42:48.278Z,9.00
2019-02-14T11:47:41.375Z,7.90
2019-02-14T11:52:34.232Z,7.70
2019-02-14T11:57:27.090Z,8.47
2019-02-14T12:02:19.953Z,9.20
2019-02-14T12:07:12.980Z,9.73
2019-02-14T12:12:05.872Z,7.47
2019-02-14T12:16:58.850Z,7.13
2019-02-14T12:21:51.750Z,9.63
2019-02-14T12:26:44.626Z,6.83
2019-02-14T12:31:37.508Z,7.90
2019-02-14T12:36:30.382Z,8.00
2019-02-14T12:41:23.319Z,7.77
2019-02-14T12:46:16.410Z,7.87
2019-02-14T12:51:09.291Z,7.33
2019-02-14T12:56:02.441Z,7.50
2019-02-14T13:00:55.295Z,6.70
2019-02-14T13:05:48.186Z,6.90
2019-02-14T13:10:41.932Z,9.80
2019-02-14T13:15:35.014Z,5.87
2019-02-14T13:20:27.914Z,6.23
2019-02-14T13:25:20.845Z,5.17
2019-02-14T13:30:17.513Z,5.40
2019-02-14T13:35:10.584Z,7.43
2019-02-14T13:40:03.896Z,9.20
2019-02-14T13:45:01.235Z,9.83
2019-02-14T13:49:57.486Z,9.27
2019-02-14T13:54:55.541Z,8.87
2019-02-14T13:59:53.285Z,6.80
2019-02-14T14:04:51.014Z,10.27
2019-02-14T14:09:46.831Z,9.40
2019-02-14T14:14:44.226Z,7.70
2019-02-14T14:19:41.342Z,5.97
2019-02-14T14:24:37.525Z,6.53
2019-02-14T14:29:33.824Z,7.30
2019-02-14T14:34:29.498Z,6.90
2019-02-14T14:39:24.689Z,6.27
2019-02-14T14:44:38.423Z,9.77
2019-02-14T14:49:31.279Z,7.30
2019-02-14T14:54:24.230Z,5.43
2019-02-14T14:59:17.257Z,6.00
2019-02-14T15:04:10.113Z,6.10
2019-02-14T15:09:04.216Z,5.67
2019-02-14T15:13:57.172Z,5.50
2019-02-14T15:18:50.031Z,5.07
2019-02-14T15:23:42.910Z,5.33
2019-02-14T15:28:37.479Z,5.13
2019-02-14T15:33:30.559Z,3.90
2019-02-14T15:38:23.562Z,7.07
2019-02-14T15:43:16.422Z,5.00
2019-02-14T15:48:09.376Z,4.87
2019-02-14T15:53:02.228Z,5.93
2019-02-14T15:57:55.155Z,3.67
2019-02-14T16:02:50.271Z,3.83
2019-02-14T16:07:42.805Z,3.40
2019-02-14T16:12:35.655Z,5.33
2019-02-14T16:17:29.636Z,6.97
2019-02-14T16:22:29.831Z,3.30
2019-02-14T16:27:17.255Z,3.67
2019-02-14T16:32:10.100Z,5.33
2019-02-14T16:37:03.980Z,3.30
2019-02-14T16:41:56.868Z,4.87
2019-02-14T16:46:51.912Z,3.90
2019-02-14T16:51:44.776Z,3.30
2019-02-14T16:56:37.734Z,2.83
2019-02-14T17:01:30.587Z,4.80
2019-02-14T17:06:25.367Z,3.97
2019-02-14T17:11:18.239Z,5.27
2019-02-14T17:16:11.138Z,5.40
2019-02-14T17:21:03.999Z,3.73
2019-02-14T17:25:56.973Z,6.13
2019-02-14T17:30:53.934Z,11.10
2019-02-14T17:35:46.918Z,9.90
2019-02-14T17:40:45.872Z,12.03
2019-02-14T17:45:34.642Z,7.43
2019-02-14T17:50:27.545Z,8.93
2019-02-14T17:55:20.384Z,7.50
2019-02-14T18:00:13.645Z,5.60
2019-02-14T18:05:07.657Z,5.83
2019-02-14T18:10:00.595Z,5.03
2019-02-14T18:14:55.263Z,7.20
2019-02-14T18:19:48.112Z,5.90
2019-02-14T18:24:41.140Z,4.23
2019-02-14T18:29:34.002Z,5.43
2019-02-14T18:34:26.903Z,7.03
2019-02-14T18:39:22.336Z,4.67
2019-02-14T18:44:15.215Z,3.83
2019-02-14T18:49:08.057Z,6.00
2019-02-14T18:54:01.027Z,6.83
2019-02-14T18:58:53.885Z,4.90
2019-02-14T19:03:46.797Z,6.50
2019-02-14T19:08:39.717Z,5.80
2019-02-14T19:13:32.661Z,7.90
2019-02-14T19:18:25.544Z,5.90
2019-02-14T19:23:24.163Z,5.60
2019-02-14T19:28:13.310Z,4.93
2019-02-14T19:33:06.245Z,5.67
2019-02-14T19:37:59.101Z,6.23
2019-02-14T19:42:52.097Z,5.37
2019-02-14T19:47:44.996Z,6.00
2019-02-14T19:52:38.967Z,6.90
2019-02-14T19:57:31.821Z,6.90
2019-02-14T20:02:24.698Z,6.50
2019-02-14T20:07:17.782Z,8.70
2019-02-14T20:12:10.723Z,9.43
2019-02-14T20:17:03.912Z,7.50
2019-02-14T20:21:56.785Z,7.03
2019-02-14T20:26:49.679Z,7.03
2019-02-14T20:31:42.579Z,8.60
2019-02-14T20:36:35.445Z,6.73
2019-02-14T20:41:28.340Z,9.00
2019-02-14T20:46:21.327Z,7.10
2019-02-14T20:51:14.242Z,7.80
2019-02-14T20:56:07.828Z,6.47
2019-02-14T21:01:02.654Z,8.57
2019-02-14T21:05:55.507Z,7.17
2019-02-14T21:10:48.397Z,7.33
2019-02-14T21:15:41.281Z,8.20
2019-02-14T21:20:34.161Z,7.33
2019-02-14T21:30:26.226Z,8.13
2019-02-14T21:35:19.113Z,6.20
2019-02-14T21:40:12.488Z,6.50
2019-02-14T21:45:07.436Z,6.23
2019-02-14T21:50:00.725Z,8.33
2019-02-14T21:54:53.747Z,8.27
2019-02-14T21:59:46.642Z,6.07
2019-02-14T22:04:39.495Z,8.57
2019-02-14T22:09:32.396Z,8.27
2019-02-14T22:14:25.233Z,5.70
2019-02-14T22:19:18.106Z,8.03
2019-02-14T22:24:12.539Z,6.53
2019-02-14T22:29:05.687Z,7.70
2019-02-14T22:33:58.560Z,8.80
2019-02-14T22:38:51.407Z,8.33
2019-02-14T22:43:44.325Z,9.27
2019-02-14T22:48:37.191Z,7.90
2019-02-14T22:53:30.058Z,6.90
2019-02-14T22:58:22.955Z,7.63
2019-02-14T23:03:16.671Z,8.43
2019-02-14T23:08:09.553Z,8.17
2019-02-14T23:13:02.477Z,9.77
2019-02-14T23:17:55.346Z,7.60
2019-02-14T23:22:48.190Z,9.97
2019-02-14T23:27:41.376Z,8.43
2019-02-14T23:32:34.475Z,8.70
2019-02-14T23:37:27.335Z,9.53
2019-02-14T23:42:20.210Z,9.43
2019-02-14T23:47:13.055Z,6.43
2019-02-14T23:52:05.921Z,7.47
2019-02-14T23:56:58.783Z,8.50
